Terminal Aerodrome Forecast
Issued by NWS Bismarck, ND

Home | Current Version | Previous Version | Graphics & Text | Print | Product List | Glossary On
Versions: 1 2 3 4 5 6 7 8 9 10 11 12 13 14 15 16 17 18 19 20
989
FTUS43 KBIS 250728 AAA
TAFISN
TAF AMD
KISN 250728Z 2507/2606 31011KT P6SM VCSH SCT020 OVC045
      TEMPO 2507/2511 BKN025 OVC035
     FM251100 32009KT P6SM SCT025 OVC035
     FM251300 28006KT P6SM BKN040
     FM260200 22004KT P6SM SCT060=

USA.gov is the U.S. government's official web portal to all federal, state and local government web resources and services.